• Join FlightAware (Why Join?)
  • Login
  • US Flag 
05:14AM EDT


 

Airport Tracker/Info


-or-


 

Live Flight TrackerFlight Track Log ✈ CTL16 ✈ 26-Jun-2013 ✈ KHAO - KBKL

Flight Track Log - Related Links

Times and Time Zones

All times are in EDT time to prevent confusion due to time zone crossing. See the CTL16 flight status page for this flight to view local times or setup timezone preferences in your user account.

Time Position Orientation Groundspeed Altitude Reporting Facility
EDT Latitude Longitude Course Direction KTS MPH feet Rate Location/Type
08:47PM 39.3500 -84.4667 72° East 134 154 1,700  Level Cincinnati TRACON
08:48PM 39.3667 -84.4000 72° East 146 168 3,000 660 Climbing Cincinnati TRACON
08:50PM 39.4072 -84.3503 43° Northeast 152 175 3,600 420 Climbing Indianapolis Center
08:51PM 39.4403 -84.3114 42° Northeast 157 181 4,000 420 Climbing Indianapolis Center
08:52PM 39.4772 -84.2697 41° Northeast 162 186 4,500 420 Climbing Indianapolis Center
08:53PM 39.5097 -84.2306 43° Northeast 160 184 4,900 360 Climbing Indianapolis Center
08:54PM 39.5422 -84.1917 43° Northeast 161 185 5,300 420 Climbing Indianapolis Center
08:55PM 39.5744 -84.1553 41° Northeast 157 181 5,800 420 Climbing Indianapolis Center
08:56PM 39.6044 -84.1161 45° Northeast 156 180 6,300 420 Climbing Indianapolis Center
08:57PM 39.6442 -84.0708 41° Northeast 159 183 6,800 300 Climbing Indianapolis Center
08:58PM 39.6833 -84.0231 43° Northeast 168 193 7,000 60 Climbing Indianapolis Center
08:59PM 39.7156 -83.9839 43° Northeast 188 216 7,000  Level Indianapolis Center
09:00PM 39.7567 -83.9369 41° Northeast 187 215 7,000 -60 Level Indianapolis Center
09:01PM 39.7942 -83.8881 45° Northeast 186 214 6,900  Descending Indianapolis Center
09:02PM 39.8319 -83.8439 42° Northeast 183 211 7,000  Climbing Indianapolis Center
09:03PM 39.8678 -83.7997 43° Northeast 180 207 7,000  Level Indianapolis Center
09:04PM 39.9050 -83.7528 44° Northeast 183 211 7,000  Level Indianapolis Center
09:05PM 39.9417 -83.7083 43° Northeast 181 208 7,000  Level Indianapolis Center
09:06PM 39.9803 -83.6611 43° Northeast 180 207 7,000  Level Indianapolis Center
09:07PM 40.0200 -83.6119 43° Northeast 185 213 7,000  Level Indianapolis Center
09:08PM 40.0569 -83.5647 44° Northeast 185 213 7,000  Level Indianapolis Center
09:09PM 40.0897 -83.5197 46° Northeast 185 213 7,000  Level Indianapolis Center
09:10PM 40.1264 -83.4753 43° Northeast 182 209 7,000  Level Indianapolis Center
09:11PM 40.1653 -83.4308 41° Northeast 184 212 7,000  Level Indianapolis Center
09:12PM 40.2067 -83.3786 44° Northeast 184 212 7,000  Level Indianapolis Center
09:13PM 40.2342 -83.3436 44° Northeast 178 205 7,000  Level Indianapolis Center
09:14PM 40.2778 -83.2883 44° Northeast 180 207 7,000  Level Indianapolis Center
09:15PM 40.3203 -83.2347 44° Northeast 180 207 7,000  Level Indianapolis Center
09:16PM 40.3567 -83.1894 43° Northeast 179 206 7,000  Level Indianapolis Center
09:17PM 40.3933 -83.1439 43° Northeast 179 206 7,000  Level Indianapolis Center
09:18PM 40.4297 -83.0964 45° Northeast 184 212 7,000 -300 Level Indianapolis Center
09:19PM 40.4681 -83.0483 44° Northeast 187 215 6,400 -780 Descending Indianapolis Center
09:20PM 40.5100 -82.9981 42° Northeast 200 230 5,500 -1,080 Descending Indianapolis Center
09:21PM 40.5517 -82.9444 44° Northeast 213 245 4,200 -1,200 Descending Indianapolis Center
09:22PM 40.5947 -82.8881 45° Northeast 216 249 3,100 -600 Descending Indianapolis Center
09:23PM 40.6336 -82.8361 45° Northeast 201 231 3,000 -60 Descending Indianapolis Center
09:24PM 40.6697 -82.7911 43° Northeast 182 209 3,000  Level Indianapolis Center
09:25PM 40.7100 -82.7383 45° Northeast 175 201 3,000  Level Indianapolis Center
09:26PM 40.7453 -82.6917 45° Northeast 177 204 3,000  Level Indianapolis Center
09:28PM 40.7814 -82.6472 43° Northeast 176 203 3,000  Level Indianapolis Center
09:30PM 40.8506 -82.5567 45° Northeast 175 201 3,000  Level Cleveland Center